createdAt,value
2017-11-11T00:02:09.143Z,12.37
2017-11-11T00:04:36.552Z,11.77
2017-11-11T00:07:03.939Z,13.43
2017-11-11T00:09:31.358Z,13.03
2017-11-11T00:11:58.734Z,12.80
2017-11-11T00:14:26.148Z,13.27
2017-11-11T00:16:53.532Z,13.10
2017-11-11T00:19:20.924Z,13.53
2017-11-11T00:21:48.319Z,13.60
2017-11-11T00:24:15.733Z,13.53
2017-11-11T00:26:43.115Z,13.77
2017-11-11T00:29:10.513Z,12.77
2017-11-11T00:31:37.911Z,13.30
2017-11-11T00:34:05.302Z,13.20
2017-11-11T00:36:32.692Z,14.20
2017-11-11T00:39:00.088Z,14.10
2017-11-11T00:41:27.478Z,13.43
2017-11-11T00:43:54.895Z,13.33
2017-11-11T00:46:22.305Z,13.03
2017-11-11T00:48:49.690Z,14.27
2017-11-11T00:51:17.082Z,13.77
2017-11-11T00:53:44.476Z,13.67
2017-11-11T00:56:11.880Z,13.30
2017-11-11T00:58:39.274Z,14.20
2017-11-11T01:01:06.668Z,13.40
2017-11-11T01:03:34.078Z,14.20
2017-11-11T01:06:01.479Z,14.70
2017-11-11T01:08:28.880Z,13.10
2017-11-11T01:10:56.271Z,14.63
2017-11-11T01:13:23.671Z,14.63
2017-11-11T01:15:51.068Z,14.30
2017-11-11T01:18:18.484Z,14.10
2017-11-11T01:20:45.872Z,14.63
2017-11-11T01:23:13.280Z,13.30
2017-11-11T01:25:40.676Z,13.23
2017-11-11T01:28:08.067Z,13.97
2017-11-11T01:30:35.472Z,13.50
2017-11-11T01:33:02.876Z,14.40
2017-11-11T01:35:30.279Z,13.73
2017-11-11T01:37:57.703Z,13.93
2017-11-11T01:40:25.093Z,13.77
2017-11-11T01:42:52.488Z,13.97
2017-11-11T01:45:19.887Z,13.80
2017-11-11T01:47:47.287Z,13.97
2017-11-11T01:50:14.679Z,14.50
2017-11-11T01:52:42.083Z,13.93
2017-11-11T01:55:09.482Z,13.50
2017-11-11T01:57:36.876Z,14.57
2017-11-11T02:00:04.275Z,14.13
2017-11-11T02:02:31.663Z,14.80
2017-11-11T02:04:59.061Z,13.90
2017-11-11T02:07:26.448Z,14.40
2017-11-11T02:09:53.847Z,14.50
2017-11-11T02:12:21.246Z,16.23
2017-11-11T02:14:48.643Z,14.83
2017-11-11T02:17:16.043Z,15.03
2017-11-11T02:19:43.435Z,14.30
2017-11-11T02:22:10.835Z,14.23
2017-11-11T02:24:38.229Z,16.00
2017-11-11T02:27:05.624Z,14.23
2017-11-11T02:29:33.011Z,15.13
2017-11-11T02:32:00.413Z,14.83
2017-11-11T02:34:27.799Z,14.73
2017-11-11T02:36:55.187Z,14.20
2017-11-11T02:39:22.575Z,15.30
2017-11-11T02:41:49.973Z,14.97
2017-11-11T02:44:17.364Z,15.90
2017-11-11T02:46:44.751Z,17.17
2017-11-11T02:49:12.155Z,16.50
2017-11-11T02:51:39.549Z,16.77
2017-11-11T02:54:06.936Z,17.67
2017-11-11T02:56:34.333Z,17.30
2017-11-11T02:59:01.733Z,17.43
2017-11-11T03:01:29.131Z,13.87
2017-11-11T03:03:56.523Z,14.77
2017-11-11T03:06:23.923Z,14.70
2017-11-11T03:08:51.313Z,14.20
2017-11-11T03:11:18.705Z,13.33
2017-11-11T03:13:46.116Z,14.10
2017-11-11T03:16:13.487Z,13.00
2017-11-11T03:18:40.883Z,12.70
2017-11-11T03:21:08.276Z,12.97
2017-11-11T03:23:35.679Z,14.40
2017-11-11T03:26:03.068Z,13.60
2017-11-11T03:28:30.462Z,13.57
2017-11-11T03:30:57.856Z,12.80
2017-11-11T03:33:25.244Z,13.00
2017-11-11T03:35:52.636Z,13.40
2017-11-11T03:38:20.040Z,12.87
2017-11-11T03:40:47.432Z,12.93
2017-11-11T03:43:14.828Z,12.63
2017-11-11T03:45:42.221Z,13.10
2017-11-11T03:48:09.629Z,13.40
2017-11-11T03:50:37.025Z,13.17
2017-11-11T03:53:04.411Z,12.20
2017-11-11T03:55:31.805Z,13.17
2017-11-11T03:57:59.205Z,13.40
2017-11-11T04:00:26.619Z,12.80
2017-11-11T04:02:54.003Z,12.10
2017-11-11T04:05:21.402Z,12.10
2017-11-11T04:07:48.791Z,12.40
2017-11-11T04:10:16.191Z,13.10
2017-11-11T04:12:43.576Z,12.00
2017-11-11T04:15:10.976Z,13.10
2017-11-11T04:17:38.367Z,12.50
2017-11-11T04:20:05.758Z,12.13
2017-11-11T04:22:33.171Z,12.67
2017-11-11T04:25:00.571Z,12.00
2017-11-11T04:27:27.971Z,11.87
2017-11-11T04:29:55.349Z,11.90
2017-11-11T04:32:22.767Z,11.87
2017-11-11T04:34:50.151Z,11.53
2017-11-11T04:37:17.569Z,12.40
2017-11-11T04:39:44.959Z,10.77
2017-11-11T04:42:12.346Z,12.37
2017-11-11T04:44:39.748Z,12.03
2017-11-11T04:47:07.148Z,11.13
2017-11-11T04:49:34.548Z,11.60
2017-11-11T04:52:01.936Z,12.60
2017-11-11T04:54:29.332Z,11.33
2017-11-11T04:56:56.732Z,11.90
2017-11-11T04:59:24.133Z,11.70
2017-11-11T05:01:51.536Z,11.40
2017-11-11T05:04:18.927Z,11.13
2017-11-11T05:06:46.313Z,12.10
2017-11-11T05:09:13.703Z,12.07
2017-11-11T05:11:41.099Z,12.93
2017-11-11T05:14:08.498Z,10.97
2017-11-11T05:16:35.891Z,12.03
2017-11-11T05:19:03.291Z,11.77
2017-11-11T05:21:30.694Z,11.60
2017-11-11T05:23:58.081Z,11.43
2017-11-11T05:26:25.468Z,11.50
2017-11-11T05:28:52.855Z,10.57
2017-11-11T05:31:20.259Z,11.50
2017-11-11T05:33:47.651Z,10.80
2017-11-11T05:36:15.040Z,10.60
2017-11-11T05:38:42.434Z,11.47
2017-11-11T05:41:09.830Z,10.57
2017-11-11T05:43:37.241Z,11.63
2017-11-11T05:46:04.618Z,10.50
2017-11-11T05:48:32.021Z,10.80
2017-11-11T05:50:59.412Z,10.53
2017-11-11T05:53:26.799Z,11.60
2017-11-11T05:55:54.191Z,11.47
2017-11-11T05:58:21.592Z,11.00
2017-11-11T06:00:48.987Z,11.70
2017-11-11T06:03:16.383Z,10.53
2017-11-11T06:05:43.788Z,10.63
2017-11-11T06:08:11.175Z,10.90
2017-11-11T06:10:38.575Z,11.63
2017-11-11T06:13:06.001Z,13.00
2017-11-11T06:15:33.392Z,13.90
2017-11-11T06:18:00.792Z,14.57
2017-11-11T06:20:28.191Z,11.93
2017-11-11T06:22:55.918Z,11.17
2017-11-11T06:25:23.311Z,10.00
2017-11-11T06:27:50.700Z,9.30
2017-11-11T06:30:18.099Z,9.30
2017-11-11T06:32:45.487Z,9.20
2017-11-11T06:35:12.874Z,8.60
2017-11-11T06:37:40.267Z,9.07
2017-11-11T06:40:07.706Z,8.67
2017-11-11T06:42:35.082Z,7.90
2017-11-11T06:45:02.467Z,8.20
2017-11-11T06:47:29.867Z,9.10
2017-11-11T06:49:57.247Z,8.30
2017-11-11T06:52:24.659Z,8.00
2017-11-11T06:54:52.039Z,8.47
2017-11-11T06:57:19.445Z,8.40
2017-11-11T06:59:46.839Z,8.47
2017-11-11T07:02:14.235Z,8.33
2017-11-11T07:04:41.616Z,8.87
2017-11-11T07:07:08.996Z,8.37
2017-11-11T07:09:36.410Z,8.93
2017-11-11T07:12:03.798Z,6.87
2017-11-11T07:14:31.190Z,8.30
2017-11-11T07:16:58.578Z,8.20
2017-11-11T07:19:25.967Z,8.97
2017-11-11T07:21:53.352Z,7.47
2017-11-11T07:24:20.733Z,7.17
2017-11-11T07:26:48.115Z,7.37
2017-11-11T07:29:15.516Z,7.37
2017-11-11T07:31:42.961Z,7.20
2017-11-11T07:34:10.344Z,7.20
2017-11-11T07:36:37.744Z,7.53
2017-11-11T07:39:05.153Z,7.30
2017-11-11T07:41:32.544Z,8.00
2017-11-11T07:43:59.946Z,8.00
2017-11-11T07:46:27.336Z,8.50
2017-11-11T07:48:54.733Z,8.23
2017-11-11T07:51:22.112Z,7.20
2017-11-11T07:53:49.511Z,8.10
2017-11-11T07:56:16.899Z,7.70
2017-11-11T07:58:44.309Z,7.67
2017-11-11T08:01:11.692Z,7.80
2017-11-11T08:03:39.075Z,8.10
2017-11-11T08:06:06.466Z,7.73
2017-11-11T08:08:33.848Z,7.00
2017-11-11T08:11:01.231Z,7.30
2017-11-11T08:13:28.612Z,6.77
2017-11-11T08:15:55.997Z,6.97
2017-11-11T08:18:23.381Z,7.07
2017-11-11T08:20:50.782Z,6.67
2017-11-11T08:23:18.151Z,6.17
2017-11-11T08:25:45.524Z,5.90
2017-11-11T08:28:12.922Z,6.23
2017-11-11T08:30:40.292Z,6.57
2017-11-11T08:33:07.671Z,6.63
2017-11-11T08:35:35.043Z,7.10
2017-11-11T08:38:02.434Z,7.20
2017-11-11T08:40:29.815Z,6.40
2017-11-11T08:42:57.235Z,7.00
2017-11-11T08:45:24.615Z,7.83
2017-11-11T08:47:51.995Z,7.03
2017-11-11T08:50:19.381Z,7.57
2017-11-11T08:52:46.760Z,8.13
2017-11-11T08:55:14.147Z,8.13
2017-11-11T08:57:41.520Z,7.70
2017-11-11T09:00:08.917Z,8.80
2017-11-11T09:02:36.292Z,8.93
2017-11-11T09:05:03.676Z,9.00
2017-11-11T09:07:31.068Z,8.93
2017-11-11T09:09:58.447Z,8.00
2017-11-11T09:12:25.836Z,8.03
2017-11-11T09:14:53.208Z,7.77
2017-11-11T09:17:20.607Z,8.70
2017-11-11T09:19:48.049Z,8.63
2017-11-11T09:22:15.412Z,8.90
2017-11-11T09:24:42.795Z,9.53
2017-11-11T09:27:10.186Z,10.10
2017-11-11T09:29:37.573Z,8.27
2017-11-11T09:32:04.967Z,8.67
2017-11-11T09:34:32.367Z,10.00
2017-11-11T09:36:59.763Z,10.70
2017-11-11T09:39:27.141Z,9.77
2017-11-11T09:41:54.568Z,9.57
2017-11-11T09:44:21.951Z,8.87
2017-11-11T09:46:49.350Z,9.70
2017-11-11T09:49:16.835Z,9.00
2017-11-11T09:51:44.224Z,8.37
2017-11-11T09:54:11.618Z,9.30
2017-11-11T09:56:39.024Z,9.80
2017-11-11T09:59:06.399Z,11.47
2017-11-11T10:01:33.779Z,8.23
2017-11-11T10:04:01.165Z,9.00
2017-11-11T10:06:28.544Z,9.53
2017-11-11T10:08:55.939Z,9.00
2017-11-11T10:11:23.323Z,9.70
2017-11-11T10:13:50.717Z,9.40
2017-11-11T10:16:19.059Z,9.20
2017-11-11T10:18:46.518Z,9.13
2017-11-11T10:21:13.989Z,10.10
2017-11-11T10:23:42.195Z,10.03
2017-11-11T10:26:22.912Z,8.60
2017-11-11T10:28:50.295Z,9.03
2017-11-11T10:31:17.678Z,9.60
2017-11-11T10:33:45.064Z,8.90
2017-11-11T10:36:12.447Z,8.93
2017-11-11T10:38:39.824Z,9.07
2017-11-11T10:41:07.220Z,9.60
2017-11-11T10:43:34.599Z,9.60
2017-11-11T10:46:01.983Z,9.70
2017-11-11T10:48:29.382Z,9.60
2017-11-11T10:50:56.760Z,10.60
2017-11-11T10:53:24.154Z,10.77
2017-11-11T10:55:51.541Z,9.13
2017-11-11T10:58:18.919Z,9.93
2017-11-11T11:00:46.307Z,8.90
2017-11-11T11:03:13.695Z,10.03
2017-11-11T11:05:41.083Z,9.63
2017-11-11T11:08:08.474Z,9.60
2017-11-11T11:10:35.869Z,10.20
2017-11-11T11:13:03.255Z,10.00
2017-11-11T11:15:30.643Z,10.60
2017-11-11T11:17:58.034Z,10.60
2017-11-11T11:20:25.423Z,10.27
2017-11-11T11:22:52.817Z,10.87
2017-11-11T11:25:20.204Z,9.87
2017-11-11T11:27:47.613Z,10.00
2017-11-11T11:30:14.995Z,10.50
2017-11-11T11:32:42.389Z,9.80
2017-11-11T11:35:09.775Z,11.20
2017-11-11T11:37:37.165Z,10.70
2017-11-11T11:40:04.637Z,11.00
2017-11-11T11:42:32.029Z,10.90
2017-11-11T11:44:59.423Z,11.17
2017-11-11T11:47:26.845Z,10.70
2017-11-11T11:49:54.232Z,11.57
2017-11-11T11:52:21.626Z,10.50
2017-11-11T11:54:49.026Z,11.57
2017-11-11T11:57:16.430Z,11.07
2017-11-11T11:59:43.812Z,10.97
2017-11-11T12:02:11.203Z,11.70
2017-11-11T12:04:38.600Z,12.07
2017-11-11T12:07:05.995Z,12.93
2017-11-11T12:09:33.395Z,13.00
2017-11-11T12:12:00.779Z,13.17
2017-11-11T12:14:28.180Z,12.77
2017-11-11T12:16:55.572Z,12.50
2017-11-11T12:19:22.965Z,12.47
2017-11-11T12:21:50.353Z,12.97
2017-11-11T12:24:17.738Z,13.10
2017-11-11T12:26:45.150Z,12.80
2017-11-11T12:29:12.532Z,12.90
2017-11-11T12:31:39.939Z,13.20
2017-11-11T12:34:07.332Z,13.40
2017-11-11T12:36:34.727Z,11.70
2017-11-11T12:39:02.139Z,12.60
2017-11-11T12:41:29.523Z,12.67
2017-11-11T12:43:56.920Z,13.40
2017-11-11T12:46:24.312Z,12.83
2017-11-11T12:48:51.708Z,12.10
2017-11-11T12:51:19.092Z,13.60
2017-11-11T12:53:46.491Z,13.43
2017-11-11T12:56:13.884Z,12.30
2017-11-11T12:58:41.267Z,13.47
2017-11-11T13:01:08.663Z,12.93
2017-11-11T13:03:36.043Z,12.03
2017-11-11T13:06:03.435Z,13.10
2017-11-11T13:08:30.823Z,12.80
2017-11-11T13:10:58.220Z,13.27
2017-11-11T13:13:25.607Z,13.00
2017-11-11T13:15:54.568Z,12.17
2017-11-11T13:18:21.953Z,13.77
2017-11-11T13:20:49.344Z,13.70
2017-11-11T13:23:16.732Z,13.67
2017-11-11T13:25:44.116Z,13.60
2017-11-11T13:28:11.511Z,13.53
2017-11-11T13:30:38.896Z,13.90
2017-11-11T13:33:06.288Z,15.53
2017-11-11T13:35:33.671Z,16.37
2017-11-11T13:38:01.420Z,15.80
2017-11-11T13:40:28.796Z,15.30
2017-11-11T13:42:56.185Z,15.97
2017-11-11T13:45:23.584Z,16.27
2017-11-11T13:47:50.972Z,17.13
2017-11-11T13:50:18.366Z,18.67
2017-11-11T13:52:45.747Z,19.07
2017-11-11T13:55:13.227Z,18.87
2017-11-11T13:57:40.610Z,19.67
2017-11-11T14:00:08.007Z,19.93
2017-11-11T14:02:35.447Z,21.20
2017-11-11T14:05:02.805Z,21.30
2017-11-11T14:07:30.199Z,21.53
2017-11-11T14:09:57.583Z,20.10
2017-11-11T14:12:24.976Z,21.87
2017-11-11T14:14:52.359Z,21.57
2017-11-11T14:17:19.772Z,22.23
2017-11-11T14:19:47.147Z,22.43
2017-11-11T14:22:14.562Z,22.20
2017-11-11T14:24:42.775Z,20.33
2017-11-11T14:27:10.576Z,20.67
2017-11-11T14:29:37.963Z,19.57
2017-11-11T14:32:05.359Z,17.70
2017-11-11T14:34:32.755Z,19.30
2017-11-11T14:37:00.419Z,19.90
2017-11-11T14:39:28.442Z,19.20
2017-11-11T14:41:55.881Z,19.50
2017-11-11T14:44:23.346Z,19.53
2017-11-11T14:46:50.732Z,25.70
2017-11-11T14:49:18.144Z,22.10
2017-11-11T14:51:45.552Z,19.17
2017-11-11T14:54:12.939Z,19.47
2017-11-11T14:56:40.334Z,17.27
2017-11-11T14:59:07.722Z,20.10
2017-11-11T15:01:35.122Z,18.43
2017-11-11T15:04:02.529Z,17.13
2017-11-11T15:06:29.919Z,16.80
2017-11-11T15:08:57.307Z,16.17
2017-11-11T15:11:24.698Z,16.70
2017-11-11T15:13:52.128Z,16.37
2017-11-11T15:16:19.517Z,16.63
2017-11-11T15:18:46.923Z,17.37
2017-11-11T15:21:14.305Z,17.80
2017-11-11T15:23:41.692Z,17.83
2017-11-11T15:26:09.079Z,18.13
2017-11-11T15:28:36.486Z,17.30
2017-11-11T15:31:04.196Z,18.50
2017-11-11T15:33:31.586Z,17.83
2017-11-11T15:35:58.980Z,18.37
2017-11-11T15:38:26.418Z,18.47
2017-11-11T15:40:53.830Z,20.15
2017-11-11T15:43:21.226Z,20.50
2017-11-11T15:45:48.632Z,19.50
2017-11-11T15:48:16.019Z,19.40
2017-11-11T15:50:43.399Z,19.10
2017-11-11T15:53:10.795Z,20.60
2017-11-11T15:55:38.182Z,20.60
2017-11-11T15:58:05.570Z,19.03
2017-11-11T16:00:32.959Z,19.83
2017-11-11T16:03:00.353Z,20.67
2017-11-11T16:05:27.839Z,21.20
2017-11-11T16:07:55.246Z,20.57
2017-11-11T16:10:22.635Z,19.83
2017-11-11T16:12:50.027Z,23.63
2017-11-11T16:15:17.414Z,24.33
2017-11-11T16:17:44.810Z,25.47
2017-11-11T16:20:12.208Z,26.87
2017-11-11T16:22:39.592Z,26.00
2017-11-11T16:25:06.991Z,28.30
2017-11-11T16:27:34.452Z,25.63
2017-11-11T16:30:01.847Z,25.23
2017-11-11T16:32:29.236Z,23.73
2017-11-11T16:34:56.618Z,23.73
2017-11-11T16:37:24.015Z,26.37
2017-11-11T16:39:51.491Z,24.60
2017-11-11T16:42:18.891Z,25.40
2017-11-11T16:44:46.271Z,23.77
2017-11-11T16:47:13.664Z,24.47
2017-11-11T16:49:41.056Z,24.47
2017-11-11T16:52:08.456Z,25.37
2017-11-11T16:54:35.853Z,25.03
2017-11-11T16:57:03.239Z,25.93
2017-11-11T16:59:30.623Z,27.77
2017-11-11T17:01:58.012Z,25.53
2017-11-11T17:04:25.411Z,25.97
2017-11-11T17:06:52.803Z,24.47
2017-11-11T17:09:21.011Z,22.03
2017-11-11T17:11:48.395Z,23.43
2017-11-11T17:14:15.774Z,23.00
2017-11-11T17:16:43.170Z,22.63
2017-11-11T17:19:10.555Z,21.50
2017-11-11T17:21:37.945Z,23.27
2017-11-11T17:24:05.340Z,22.73
2017-11-11T17:26:32.741Z,24.23
2017-11-11T17:29:00.136Z,23.30
2017-11-11T17:31:27.531Z,21.83
2017-11-11T17:33:54.924Z,23.30
2017-11-11T17:36:22.316Z,21.47
2017-11-11T17:38:49.708Z,24.13
2017-11-11T17:41:17.106Z,23.57
2017-11-11T17:43:44.520Z,22.77
2017-11-11T17:46:11.914Z,23.90
2017-11-11T17:48:39.291Z,22.53
2017-11-11T17:51:06.685Z,23.20
2017-11-11T17:53:34.068Z,22.10
2017-11-11T17:56:02.416Z,24.00
2017-11-11T17:58:29.801Z,25.47
2017-11-11T18:00:57.195Z,23.87
2017-11-11T18:03:24.610Z,22.47
2017-11-11T18:05:51.992Z,24.13
2017-11-11T18:08:19.398Z,23.00
2017-11-11T18:10:46.779Z,24.10
2017-11-11T18:13:14.204Z,23.30
2017-11-11T18:15:41.600Z,24.27
2017-11-11T18:18:08.979Z,23.70
2017-11-11T18:20:36.377Z,23.60
2017-11-11T18:23:03.768Z,24.07
2017-11-11T18:25:31.159Z,26.03
2017-11-11T18:27:58.556Z,24.03
2017-11-11T18:30:26.048Z,24.33
2017-11-11T18:32:53.439Z,25.40
2017-11-11T18:35:20.901Z,24.80
2017-11-11T18:37:48.292Z,22.60
2017-11-11T18:40:15.680Z,24.90
2017-11-11T18:42:43.080Z,22.90
2017-11-11T18:45:10.470Z,26.07
2017-11-11T18:47:37.864Z,25.40
2017-11-11T18:50:05.252Z,28.10
2017-11-11T18:52:32.644Z,24.33
2017-11-11T18:55:00.040Z,25.37
2017-11-11T18:57:27.435Z,25.40
2017-11-11T18:59:54.827Z,26.17
2017-11-11T19:02:22.217Z,23.47
2017-11-11T19:04:49.624Z,25.30
2017-11-11T19:07:17.006Z,25.43
2017-11-11T19:09:44.399Z,23.17
2017-11-11T19:12:11.831Z,24.20
2017-11-11T19:14:39.219Z,23.40
2017-11-11T19:17:06.623Z,24.83
2017-11-11T19:19:34.015Z,24.30
2017-11-11T19:22:01.403Z,23.70
2017-11-11T19:24:28.815Z,24.53
2017-11-11T19:26:56.211Z,23.20
2017-11-11T19:29:23.605Z,24.03
2017-11-11T19:31:50.999Z,24.23
2017-11-11T19:34:18.387Z,25.13
2017-11-11T19:36:45.787Z,25.67
2017-11-11T19:39:13.843Z,25.73
2017-11-11T19:41:41.241Z,27.40
2017-11-11T19:44:08.695Z,27.70
2017-11-11T19:46:36.089Z,27.50
2017-11-11T19:49:04.169Z,28.00
2017-11-11T19:51:31.576Z,29.03
2017-11-11T19:53:58.963Z,30.40
2017-11-11T19:56:27.091Z,30.27
2017-11-11T19:58:54.547Z,32.53
2017-11-11T20:01:21.942Z,33.50
2017-11-11T20:03:49.567Z,32.00
2017-11-11T20:06:18.103Z,34.33
2017-11-11T20:08:45.847Z,32.90
2017-11-11T20:11:14.012Z,31.77
2017-11-11T20:13:42.123Z,33.57
2017-11-11T20:16:10.381Z,36.07
2017-11-11T20:18:37.775Z,36.63
2017-11-11T20:21:05.178Z,34.93
2017-11-11T20:23:32.995Z,35.97
2017-11-11T20:26:00.400Z,36.37
2017-11-11T20:28:27.827Z,34.50
2017-11-11T20:30:55.227Z,32.47
2017-11-11T20:33:22.636Z,36.60
2017-11-11T20:35:50.830Z,37.37
2017-11-11T20:38:18.220Z,36.43
2017-11-11T20:40:45.625Z,37.80
2017-11-11T20:43:13.016Z,37.07
2017-11-11T20:45:40.401Z,37.37
2017-11-11T20:48:07.821Z,37.40
2017-11-11T20:50:35.199Z,37.40
2017-11-11T20:53:02.588Z,35.00
2017-11-11T20:55:30.076Z,37.30
2017-11-11T20:57:57.456Z,35.93
2017-11-11T21:00:24.852Z,35.63
2017-11-11T21:02:52.248Z,35.77
2017-11-11T21:05:19.665Z,32.97
2017-11-11T21:07:47.046Z,32.77
2017-11-11T21:10:15.304Z,31.30
2017-11-11T21:12:42.692Z,38.70
2017-11-11T21:15:10.079Z,36.47
2017-11-11T21:17:37.486Z,37.40
2017-11-11T21:20:04.870Z,35.57
2017-11-11T21:22:32.266Z,36.10
2017-11-11T21:24:59.663Z,36.20
2017-11-11T21:27:27.068Z,36.57
2017-11-11T21:29:54.460Z,36.60
2017-11-11T21:32:21.850Z,36.60
2017-11-11T21:34:49.252Z,35.77
2017-11-11T21:37:16.636Z,34.77
2017-11-11T21:39:44.028Z,33.90
2017-11-11T21:42:11.411Z,32.27
2017-11-11T21:44:38.799Z,35.10
2017-11-11T21:47:06.197Z,35.23
2017-11-11T21:49:33.579Z,34.03
2017-11-11T21:52:00.975Z,34.43
2017-11-11T21:54:28.367Z,35.43
2017-11-11T21:56:55.768Z,32.43
2017-11-11T21:59:23.160Z,32.73
2017-11-11T22:01:50.550Z,30.37
2017-11-11T22:04:17.944Z,31.17
2017-11-11T22:06:45.335Z,30.77
2017-11-11T22:09:12.718Z,32.60
2017-11-11T22:11:40.108Z,32.60
2017-11-11T22:14:07.529Z,31.87
2017-11-11T22:16:34.915Z,29.73
2017-11-11T22:19:02.319Z,31.00
2017-11-11T22:21:29.707Z,31.00
2017-11-11T22:23:57.099Z,29.60
2017-11-11T22:26:24.492Z,31.33
2017-11-11T22:28:51.888Z,33.97
2017-11-11T22:31:19.344Z,32.67
2017-11-11T22:33:46.730Z,30.87
2017-11-11T22:36:14.117Z,31.40
2017-11-11T22:38:41.512Z,30.80
2017-11-11T22:41:08.906Z,31.37
2017-11-11T22:43:36.287Z,29.50
2017-11-11T22:46:03.677Z,32.13
2017-11-11T22:48:31.076Z,31.83
2017-11-11T22:50:58.469Z,31.27
2017-11-11T22:53:25.855Z,32.43
2017-11-11T22:55:53.251Z,33.43
2017-11-11T22:58:20.639Z,33.20
2017-11-11T23:00:48.040Z,32.00
2017-11-11T23:03:15.428Z,30.50
2017-11-11T23:05:42.812Z,32.80
2017-11-11T23:08:10.202Z,31.97
2017-11-11T23:10:37.595Z,31.40
2017-11-11T23:13:05.004Z,32.30
2017-11-11T23:15:32.386Z,31.30
2017-11-11T23:17:59.771Z,28.73
2017-11-11T23:20:27.163Z,29.83
2017-11-11T23:22:54.557Z,29.37
2017-11-11T23:25:21.952Z,32.30
2017-11-11T23:27:49.334Z,30.23
2017-11-11T23:30:16.752Z,30.70
2017-11-11T23:32:44.135Z,33.40
2017-11-11T23:35:11.524Z,31.00
2017-11-11T23:37:38.921Z,29.23
2017-11-11T23:40:06.323Z,30.40
2017-11-11T23:42:33.703Z,32.83
2017-11-11T23:45:01.105Z,32.10
2017-11-11T23:47:28.494Z,34.07
2017-11-11T23:49:55.904Z,36.40
2017-11-11T23:52:23.267Z,33.60
2017-11-11T23:54:50.667Z,32.43
2017-11-11T23:57:18.044Z,35.70
2017-11-11T23:59:45.445Z,32.73
